sensor_id;sensor_type;location;lat;lon;timestamp;temperature;humidity
54614;DHT22;40514;52.758;6.360;2022-09-02T00:02:10;17.40;61.00
54614;DHT22;40514;52.758;6.360;2022-09-02T00:04:36;17.40;61.30
54614;DHT22;40514;52.758;6.360;2022-09-02T00:07:02;17.40;60.70
54614;DHT22;40514;52.758;6.360;2022-09-02T00:09:27;17.30;60.80
54614;DHT22;40514;52.758;6.360;2022-09-02T00:11:53;17.40;61.10
54614;DHT22;40514;52.758;6.360;2022-09-02T00:14:21;17.70;61.10
54614;DHT22;40514;52.758;6.360;2022-09-02T00:16:47;17.30;61.30
54614;DHT22;40514;52.758;6.360;2022-09-02T00:19:16;17.30;61.40
54614;DHT22;40514;52.758;6.360;2022-09-02T00:21:43;17.20;61.70
54614;DHT22;40514;52.758;6.360;2022-09-02T00:24:09;17.10;61.60
54614;DHT22;40514;52.758;6.360;2022-09-02T00:26:36;17.10;61.70
54614;DHT22;40514;52.758;6.360;2022-09-02T00:29:01;17.10;61.50
54614;DHT22;40514;52.758;6.360;2022-09-02T00:31:27;17.10;61.70
54614;DHT22;40514;52.758;6.360;2022-09-02T00:33:53;17.10;62.40
54614;DHT22;40514;52.758;6.360;2022-09-02T00:36:19;17.00;61.80
54614;DHT22;40514;52.758;6.360;2022-09-02T00:38:45;17.00;61.90
54614;DHT22;40514;52.758;6.360;2022-09-02T00:41:10;16.90;62.50
54614;DHT22;40514;52.758;6.360;2022-09-02T00:46:05;16.80;62.60
54614;DHT22;40514;52.758;6.360;2022-09-02T00:48:30;16.80;62.50
54614;DHT22;40514;52.758;6.360;2022-09-02T00:50:56;16.80;63.30
54614;DHT22;40514;52.758;6.360;2022-09-02T00:53:21;16.70;63.00
54614;DHT22;40514;52.758;6.360;2022-09-02T00:55:47;16.70;62.30
54614;DHT22;40514;52.758;6.360;2022-09-02T00:58:25;16.70;62.70
54614;DHT22;40514;52.758;6.360;2022-09-02T01:00:52;16.70;62.80
54614;DHT22;40514;52.758;6.360;2022-09-02T01:03:21;16.60;63.90
54614;DHT22;40514;52.758;6.360;2022-09-02T01:05:47;16.60;63.70
54614;DHT22;40514;52.758;6.360;2022-09-02T01:08:15;16.60;62.90
54614;DHT22;40514;52.758;6.360;2022-09-02T01:10:41;16.50;63.80
54614;DHT22;40514;52.758;6.360;2022-09-02T01:13:09;16.50;64.40
54614;DHT22;40514;52.758;6.360;2022-09-02T01:15:37;16.40;64.30
54614;DHT22;40514;52.758;6.360;2022-09-02T01:18:04;16.40;64.90
54614;DHT22;40514;52.758;6.360;2022-09-02T01:20:31;16.40;64.90
54614;DHT22;40514;52.758;6.360;2022-09-02T01:22:56;16.30;64.70
54614;DHT22;40514;52.758;6.360;2022-09-02T01:25:24;16.30;64.80
54614;DHT22;40514;52.758;6.360;2022-09-02T01:27:51;16.30;65.60
54614;DHT22;40514;52.758;6.360;2022-09-02T01:30:18;16.20;65.10
54614;DHT22;40514;52.758;6.360;2022-09-02T01:32:46;16.20;65.60
54614;DHT22;40514;52.758;6.360;2022-09-02T01:35:14;16.10;65.80
54614;DHT22;40514;52.758;6.360;2022-09-02T01:37:40;16.10;66.00
54614;DHT22;40514;52.758;6.360;2022-09-02T01:40:07;16.10;65.90
54614;DHT22;40514;52.758;6.360;2022-09-02T01:42:33;16.10;65.60
54614;DHT22;40514;52.758;6.360;2022-09-02T01:44:59;16.10;66.00
54614;DHT22;40514;52.758;6.360;2022-09-02T01:47:25;16.10;65.60
54614;DHT22;40514;52.758;6.360;2022-09-02T01:49:51;16.00;65.80
54614;DHT22;40514;52.758;6.360;2022-09-02T01:52:17;16.00;66.40
54614;DHT22;40514;52.758;6.360;2022-09-02T01:54:43;16.00;66.70
54614;DHT22;40514;52.758;6.360;2022-09-02T01:57:09;15.90;66.70
54614;DHT22;40514;52.758;6.360;2022-09-02T01:59:34;15.90;66.60
54614;DHT22;40514;52.758;6.360;2022-09-02T02:02:00;15.90;67.30
54614;DHT22;40514;52.758;6.360;2022-09-02T02:04:25;15.80;67.10
54614;DHT22;40514;52.758;6.360;2022-09-02T02:06:51;15.80;66.70
54614;DHT22;40514;52.758;6.360;2022-09-02T02:09:17;15.80;66.80
54614;DHT22;40514;52.758;6.360;2022-09-02T02:11:43;15.80;67.10
54614;DHT22;40514;52.758;6.360;2022-09-02T02:14:09;15.80;67.20
54614;DHT22;40514;52.758;6.360;2022-09-02T02:16:34;15.80;67.60
54614;DHT22;40514;52.758;6.360;2022-09-02T02:19:00;15.70;68.10
54614;DHT22;40514;52.758;6.360;2022-09-02T02:21:25;15.70;67.80
54614;DHT22;40514;52.758;6.360;2022-09-02T02:23:51;15.60;68.60
54614;DHT22;40514;52.758;6.360;2022-09-02T02:26:17;15.60;69.50
54614;DHT22;40514;52.758;6.360;2022-09-02T02:28:42;15.50;68.80
54614;DHT22;40514;52.758;6.360;2022-09-02T02:31:08;15.50;69.20
54614;DHT22;40514;52.758;6.360;2022-09-02T02:33:33;15.50;68.20
54614;DHT22;40514;52.758;6.360;2022-09-02T02:36:00;15.50;68.70
54614;DHT22;40514;52.758;6.360;2022-09-02T02:38:25;15.50;69.00
54614;DHT22;40514;52.758;6.360;2022-09-02T02:40:54;15.50;68.90
54614;DHT22;40514;52.758;6.360;2022-09-02T02:43:22;15.50;69.70
54614;DHT22;40514;52.758;6.360;2022-09-02T02:45:48;15.50;69.10
54614;DHT22;40514;52.758;6.360;2022-09-02T02:48:14;15.40;70.60
54614;DHT22;40514;52.758;6.360;2022-09-02T02:50:39;15.40;71.00
54614;DHT22;40514;52.758;6.360;2022-09-02T02:53:05;15.30;71.00
54614;DHT22;40514;52.758;6.360;2022-09-02T02:55:31;15.30;71.10
54614;DHT22;40514;52.758;6.360;2022-09-02T02:57:56;15.30;70.20
54614;DHT22;40514;52.758;6.360;2022-09-02T03:00:23;15.30;70.70
54614;DHT22;40514;52.758;6.360;2022-09-02T03:02:49;15.30;71.50
54614;DHT22;40514;52.758;6.360;2022-09-02T03:05:15;15.30;70.50
54614;DHT22;40514;52.758;6.360;2022-09-02T03:07:40;15.20;71.90
54614;DHT22;40514;52.758;6.360;2022-09-02T03:10:06;15.20;73.10
54614;DHT22;40514;52.758;6.360;2022-09-02T03:12:33;15.20;72.30
54614;DHT22;40514;52.758;6.360;2022-09-02T03:14:58;15.20;72.70
54614;DHT22;40514;52.758;6.360;2022-09-02T03:17:24;15.20;72.40
54614;DHT22;40514;52.758;6.360;2022-09-02T03:19:49;15.20;71.70
54614;DHT22;40514;52.758;6.360;2022-09-02T03:22:15;15.20;73.10
54614;DHT22;40514;52.758;6.360;2022-09-02T03:24:41;15.20;73.30
54614;DHT22;40514;52.758;6.360;2022-09-02T03:27:06;15.10;73.70
54614;DHT22;40514;52.758;6.360;2022-09-02T03:29:32;15.10;73.40
54614;DHT22;40514;52.758;6.360;2022-09-02T03:31:57;15.10;73.30
54614;DHT22;40514;52.758;6.360;2022-09-02T03:34:23;15.10;73.50
54614;DHT22;40514;52.758;6.360;2022-09-02T03:36:48;15.10;74.30
54614;DHT22;40514;52.758;6.360;2022-09-02T03:39:14;15.00;76.00
54614;DHT22;40514;52.758;6.360;2022-09-02T03:41:39;15.00;75.10
54614;DHT22;40514;52.758;6.360;2022-09-02T03:44:05;15.00;74.50
54614;DHT22;40514;52.758;6.360;2022-09-02T03:46:31;15.00;76.30
54614;DHT22;40514;52.758;6.360;2022-09-02T03:48:57;15.00;75.90
54614;DHT22;40514;52.758;6.360;2022-09-02T03:51:22;15.00;76.70
54614;DHT22;40514;52.758;6.360;2022-09-02T03:53:48;15.00;76.40
54614;DHT22;40514;52.758;6.360;2022-09-02T03:56:13;14.90;77.30
54614;DHT22;40514;52.758;6.360;2022-09-02T03:58:43;14.90;77.10
54614;DHT22;40514;52.758;6.360;2022-09-02T04:01:12;14.90;77.70
54614;DHT22;40514;52.758;6.360;2022-09-02T04:03:38;14.90;77.80
54614;DHT22;40514;52.758;6.360;2022-09-02T04:06:03;14.90;77.50
54614;DHT22;40514;52.758;6.360;2022-09-02T04:08:29;14.90;77.80
54614;DHT22;40514;52.758;6.360;2022-09-02T04:10:54;14.90;79.20
54614;DHT22;40514;52.758;6.360;2022-09-02T04:13:20;14.80;78.30
54614;DHT22;40514;52.758;6.360;2022-09-02T04:15:46;14.80;80.50
54614;DHT22;40514;52.758;6.360;2022-09-02T04:18:14;14.80;79.90
54614;DHT22;40514;52.758;6.360;2022-09-02T04:20:40;14.70;80.40
54614;DHT22;40514;52.758;6.360;2022-09-02T04:23:06;14.70;81.50
54614;DHT22;40514;52.758;6.360;2022-09-02T04:25:32;14.70;80.50
54614;DHT22;40514;52.758;6.360;2022-09-02T04:27:58;14.70;82.10
54614;DHT22;40514;52.758;6.360;2022-09-02T04:30:23;14.70;82.90
54614;DHT22;40514;52.758;6.360;2022-09-02T04:32:50;14.70;82.80
54614;DHT22;40514;52.758;6.360;2022-09-02T04:35:15;14.60;82.10
54614;DHT22;40514;52.758;6.360;2022-09-02T04:37:41;14.60;82.00
54614;DHT22;40514;52.758;6.360;2022-09-02T04:40:07;14.60;83.10
54614;DHT22;40514;52.758;6.360;2022-09-02T04:42:33;14.60;82.50
54614;DHT22;40514;52.758;6.360;2022-09-02T04:44:58;14.60;85.00
54614;DHT22;40514;52.758;6.360;2022-09-02T04:47:24;14.60;85.10
54614;DHT22;40514;52.758;6.360;2022-09-02T04:49:50;14.60;85.10
54614;DHT22;40514;52.758;6.360;2022-09-02T04:52:16;14.60;85.50
54614;DHT22;40514;52.758;6.360;2022-09-02T04:54:41;14.50;84.50
54614;DHT22;40514;52.758;6.360;2022-09-02T04:57:07;14.50;86.50
54614;DHT22;40514;52.758;6.360;2022-09-02T04:59:32;14.50;86.70
54614;DHT22;40514;52.758;6.360;2022-09-02T05:02:01;14.50;86.90
54614;DHT22;40514;52.758;6.360;2022-09-02T05:04:26;14.50;87.80
54614;DHT22;40514;52.758;6.360;2022-09-02T05:06:52;14.50;89.20
54614;DHT22;40514;52.758;6.360;2022-09-02T05:09:19;14.50;89.00
54614;DHT22;40514;52.758;6.360;2022-09-02T05:11:45;14.50;88.60
54614;DHT22;40514;52.758;6.360;2022-09-02T05:14:12;14.50;90.20
54614;DHT22;40514;52.758;6.360;2022-09-02T05:16:41;14.50;89.90
54614;DHT22;40514;52.758;6.360;2022-09-02T05:19:07;14.50;90.30
54614;DHT22;40514;52.758;6.360;2022-09-02T05:21:37;14.50;90.60
54614;DHT22;40514;52.758;6.360;2022-09-02T05:24:03;14.50;90.90
54614;DHT22;40514;52.758;6.360;2022-09-02T05:26:28;14.50;90.50
54614;DHT22;40514;52.758;6.360;2022-09-02T05:28:54;14.50;90.50
54614;DHT22;40514;52.758;6.360;2022-09-02T05:31:20;14.50;92.00
54614;DHT22;40514;52.758;6.360;2022-09-02T05:33:45;14.50;91.90
54614;DHT22;40514;52.758;6.360;2022-09-02T05:36:12;14.60;92.10
54614;DHT22;40514;52.758;6.360;2022-09-02T05:38:39;14.60;92.00
54614;DHT22;40514;52.758;6.360;2022-09-02T05:41:06;14.60;91.80
54614;DHT22;40514;52.758;6.360;2022-09-02T05:43:36;14.60;92.30
54614;DHT22;40514;52.758;6.360;2022-09-02T05:46:05;14.60;92.30
54614;DHT22;40514;52.758;6.360;2022-09-02T05:48:33;14.70;92.90
54614;DHT22;40514;52.758;6.360;2022-09-02T05:51:17;14.70;93.20
54614;DHT22;40514;52.758;6.360;2022-09-02T05:53:43;15.10;93.60
54614;DHT22;40514;52.758;6.360;2022-09-02T05:56:08;14.80;92.80
54614;DHT22;40514;52.758;6.360;2022-09-02T05:58:37;14.80;93.30
54614;DHT22;40514;52.758;6.360;2022-09-02T06:01:06;15.00;93.30
54614;DHT22;40514;52.758;6.360;2022-09-02T06:03:32;14.90;93.20
54614;DHT22;40514;52.758;6.360;2022-09-02T06:05:58;14.90;93.10
54614;DHT22;40514;52.758;6.360;2022-09-02T06:08:23;14.90;94.00
54614;DHT22;40514;52.758;6.360;2022-09-02T06:10:49;14.90;94.20
54614;DHT22;40514;52.758;6.360;2022-09-02T06:13:17;14.90;94.10
54614;DHT22;40514;52.758;6.360;2022-09-02T06:15:47;15.00;94.20
54614;DHT22;40514;52.758;6.360;2022-09-02T06:18:15;15.10;94.20
54614;DHT22;40514;52.758;6.360;2022-09-02T06:20:44;15.10;94.00
54614;DHT22;40514;52.758;6.360;2022-09-02T06:23:10;15.20;93.60
54614;DHT22;40514;52.758;6.360;2022-09-02T06:25:37;15.30;93.90
54614;DHT22;40514;52.758;6.360;2022-09-02T06:28:02;15.50;93.10
54614;DHT22;40514;52.758;6.360;2022-09-02T06:30:32;15.50;93.50
54614;DHT22;40514;52.758;6.360;2022-09-02T06:32:58;15.60;93.70
54614;DHT22;40514;52.758;6.360;2022-09-02T06:35:23;15.70;93.60
54614;DHT22;40514;52.758;6.360;2022-09-02T06:37:50;15.80;93.30
54614;DHT22;40514;52.758;6.360;2022-09-02T06:40:15;15.90;93.60
54614;DHT22;40514;52.758;6.360;2022-09-02T06:42:42;16.10;93.30
54614;DHT22;40514;52.758;6.360;2022-09-02T06:45:08;16.10;92.60
54614;DHT22;40514;52.758;6.360;2022-09-02T06:47:34;16.20;93.50
54614;DHT22;40514;52.758;6.360;2022-09-02T06:50:00;16.30;93.30
54614;DHT22;40514;52.758;6.360;2022-09-02T06:52:25;16.50;92.50
54614;DHT22;40514;52.758;6.360;2022-09-02T06:54:51;16.60;92.50
54614;DHT22;40514;52.758;6.360;2022-09-02T06:57:19;16.60;92.40
54614;DHT22;40514;52.758;6.360;2022-09-02T06:59:44;16.70;92.00
54614;DHT22;40514;52.758;6.360;2022-09-02T07:02:11;16.80;92.10
54614;DHT22;40514;52.758;6.360;2022-09-02T07:04:36;16.90;91.40
54614;DHT22;40514;52.758;6.360;2022-09-02T07:07:21;17.00;91.30
54614;DHT22;40514;52.758;6.360;2022-09-02T07:09:46;17.20;91.40
54614;DHT22;40514;52.758;6.360;2022-09-02T07:12:12;17.30;91.40
54614;DHT22;40514;52.758;6.360;2022-09-02T07:14:39;17.40;90.90
54614;DHT22;40514;52.758;6.360;2022-09-02T07:17:07;17.50;90.80
54614;DHT22;40514;52.758;6.360;2022-09-02T07:19:33;17.60;90.60
54614;DHT22;40514;52.758;6.360;2022-09-02T07:21:58;17.70;90.80
54614;DHT22;40514;52.758;6.360;2022-09-02T07:24:24;17.80;90.50
54614;DHT22;40514;52.758;6.360;2022-09-02T07:26:49;17.90;89.90
54614;DHT22;40514;52.758;6.360;2022-09-02T07:29:15;18.00;90.00
54614;DHT22;40514;52.758;6.360;2022-09-02T07:31:42;18.00;90.20
54614;DHT22;40514;52.758;6.360;2022-09-02T07:34:08;18.20;90.10
54614;DHT22;40514;52.758;6.360;2022-09-02T07:36:34;18.30;89.60
54614;DHT22;40514;52.758;6.360;2022-09-02T07:39:01;18.40;89.40
54614;DHT22;40514;52.758;6.360;2022-09-02T07:41:27;18.50;88.50
54614;DHT22;40514;52.758;6.360;2022-09-02T07:43:54;18.60;87.50
54614;DHT22;40514;52.758;6.360;2022-09-02T07:46:19;18.80;87.80
54614;DHT22;40514;52.758;6.360;2022-09-02T07:48:46;18.90;85.60
54614;DHT22;40514;52.758;6.360;2022-09-02T07:51:14;18.90;85.80
54614;DHT22;40514;52.758;6.360;2022-09-02T07:53:40;19.00;86.30
54614;DHT22;40514;52.758;6.360;2022-09-02T07:56:06;19.10;85.80
54614;DHT22;40514;52.758;6.360;2022-09-02T07:58:31;19.20;84.30
54614;DHT22;40514;52.758;6.360;2022-09-02T08:00:57;19.30;84.10
54614;DHT22;40514;52.758;6.360;2022-09-02T08:03:23;19.40;83.20
54614;DHT22;40514;52.758;6.360;2022-09-02T08:05:48;19.80;83.60
54614;DHT22;40514;52.758;6.360;2022-09-02T08:08:15;19.60;82.60
54614;DHT22;40514;52.758;6.360;2022-09-02T08:10:41;19.80;82.40
54614;DHT22;40514;52.758;6.360;2022-09-02T08:13:06;19.80;82.10
54614;DHT22;40514;52.758;6.360;2022-09-02T08:15:33;19.90;80.70
54614;DHT22;40514;52.758;6.360;2022-09-02T08:18:00;20.00;82.00
54614;DHT22;40514;52.758;6.360;2022-09-02T08:20:26;20.10;79.80
54614;DHT22;40514;52.758;6.360;2022-09-02T08:22:52;20.30;79.40
54614;DHT22;40514;52.758;6.360;2022-09-02T08:25:17;20.50;80.50
54614;DHT22;40514;52.758;6.360;2022-09-02T08:27:43;20.60;78.60
54614;DHT22;40514;52.758;6.360;2022-09-02T08:30:10;20.80;78.50
54614;DHT22;40514;52.758;6.360;2022-09-02T08:32:36;20.90;78.30
54614;DHT22;40514;52.758;6.360;2022-09-02T08:35:02;21.10;77.10
54614;DHT22;40514;52.758;6.360;2022-09-02T08:37:29;21.30;76.10
54614;DHT22;40514;52.758;6.360;2022-09-02T08:39:55;21.50;75.70
54614;DHT22;40514;52.758;6.360;2022-09-02T08:42:28;21.60;75.00
54614;DHT22;40514;52.758;6.360;2022-09-02T08:44:57;21.90;73.60
54614;DHT22;40514;52.758;6.360;2022-09-02T08:47:25;22.10;74.20
54614;DHT22;40514;52.758;6.360;2022-09-02T08:49:53;22.30;72.20
54614;DHT22;40514;52.758;6.360;2022-09-02T08:55:04;22.80;70.80
54614;DHT22;40514;52.758;6.360;2022-09-02T08:57:30;23.00;70.30
54614;DHT22;40514;52.758;6.360;2022-09-02T08:59:56;23.20;68.60
54614;DHT22;40514;52.758;6.360;2022-09-02T09:02:38;23.60;67.60
54614;DHT22;40514;52.758;6.360;2022-09-02T09:10:35;24.50;64.50
54614;DHT22;40514;52.758;6.360;2022-09-02T09:15:43;25.60;61.40
54614;DHT22;40514;52.758;6.360;2022-09-02T09:18:12;26.20;60.50
54614;DHT22;40514;52.758;6.360;2022-09-02T09:20:39;26.80;57.80
54614;DHT22;40514;52.758;6.360;2022-09-02T09:23:47;27.40;56.10
54614;DHT22;40514;52.758;6.360;2022-09-02T09:25:56;27.70;53.70
54614;DHT22;40514;52.758;6.360;2022-09-02T09:28:25;28.10;53.10
54614;DHT22;40514;52.758;6.360;2022-09-02T09:30:50;28.40;52.20
54614;DHT22;40514;52.758;6.360;2022-09-02T09:33:16;28.60;50.90
54614;DHT22;40514;52.758;6.360;2022-09-02T09:35:53;28.90;51.30
54614;DHT22;40514;52.758;6.360;2022-09-02T09:38:27;28.90;50.70
54614;DHT22;40514;52.758;6.360;2022-09-02T09:41:39;29.30;49.70
54614;DHT22;40514;52.758;6.360;2022-09-02T09:43:40;29.70;49.00
54614;DHT22;40514;52.758;6.360;2022-09-02T09:46:25;29.80;48.10
54614;DHT22;40514;52.758;6.360;2022-09-02T09:48:51;30.00;48.10
54614;DHT22;40514;52.758;6.360;2022-09-02T09:51:17;30.00;46.20
54614;DHT22;40514;52.758;6.360;2022-09-02T09:53:43;30.10;46.30
54614;DHT22;40514;52.758;6.360;2022-09-02T10:03:40;30.40;44.60
54614;DHT22;40514;52.758;6.360;2022-09-02T10:06:16;30.60;45.70
54614;DHT22;40514;52.758;6.360;2022-09-02T10:08:53;30.80;45.10
54614;DHT22;40514;52.758;6.360;2022-09-02T10:11:20;31.20;45.00
54614;DHT22;40514;52.758;6.360;2022-09-02T10:13:46;31.80;44.70
54614;DHT22;40514;52.758;6.360;2022-09-02T10:16:14;32.10;44.60
54614;DHT22;40514;52.758;6.360;2022-09-02T10:24:36;33.10;42.00
54614;DHT22;40514;52.758;6.360;2022-09-02T10:27:07;33.30;40.80
54614;DHT22;40514;52.758;6.360;2022-09-02T10:32:27;33.20;40.10
54614;DHT22;40514;52.758;6.360;2022-09-02T10:37:46;33.50;42.10
54614;DHT22;40514;52.758;6.360;2022-09-02T10:40:14;33.70;41.00
54614;DHT22;40514;52.758;6.360;2022-09-02T10:47:36;34.10;38.00
54614;DHT22;40514;52.758;6.360;2022-09-02T10:52:33;34.50;38.40
54614;DHT22;40514;52.758;6.360;2022-09-02T10:55:15;34.70;39.20
54614;DHT22;40514;52.758;6.360;2022-09-02T10:57:47;35.00;37.90
54614;DHT22;40514;52.758;6.360;2022-09-02T11:00:15;35.00;37.90
54614;DHT22;40514;52.758;6.360;2022-09-02T11:05:13;34.90;38.50
54614;DHT22;40514;52.758;6.360;2022-09-02T11:07:41;34.90;37.00
54614;DHT22;40514;52.758;6.360;2022-09-02T11:10:14;35.10;38.10
54614;DHT22;40514;52.758;6.360;2022-09-02T11:12:53;35.50;38.30
54614;DHT22;40514;52.758;6.360;2022-09-02T11:15:34;35.80;37.40
54614;DHT22;40514;52.758;6.360;2022-09-02T11:18:08;36.20;37.10
54614;DHT22;40514;52.758;6.360;2022-09-02T11:20:43;36.20;41.20
54614;DHT22;40514;52.758;6.360;2022-09-02T11:25:37;35.80;36.60
54614;DHT22;40514;52.758;6.360;2022-09-02T11:28:24;36.00;36.90
54614;DHT22;40514;52.758;6.360;2022-09-02T11:31:09;36.20;36.30
54614;DHT22;40514;52.758;6.360;2022-09-02T11:36:08;36.60;35.40
54614;DHT22;40514;52.758;6.360;2022-09-02T11:38:46;36.80;35.90
54614;DHT22;40514;52.758;6.360;2022-09-02T11:41:21;37.00;36.00
54614;DHT22;40514;52.758;6.360;2022-09-02T11:43:51;37.40;35.90
54614;DHT22;40514;52.758;6.360;2022-09-02T11:51:25;37.60;35.00
54614;DHT22;40514;52.758;6.360;2022-09-02T11:53:54;37.90;34.90
54614;DHT22;40514;52.758;6.360;2022-09-02T11:56:21;37.90;35.70
54614;DHT22;40514;52.758;6.360;2022-09-02T11:58:49;37.80;33.80
54614;DHT22;40514;52.758;6.360;2022-09-02T12:01:26;37.70;33.50
54614;DHT22;40514;52.758;6.360;2022-09-02T12:03:55;37.80;33.00
54614;DHT22;40514;52.758;6.360;2022-09-02T12:06:22;37.90;33.80
54614;DHT22;40514;52.758;6.360;2022-09-02T12:14:02;38.20;33.50
54614;DHT22;40514;52.758;6.360;2022-09-02T12:21:21;38.40;33.50
54614;DHT22;40514;52.758;6.360;2022-09-02T12:26:13;38.30;34.10
54614;DHT22;40514;52.758;6.360;2022-09-02T12:28:39;38.40;33.90
54614;DHT22;40514;52.758;6.360;2022-09-02T12:33:33;39.10;32.80
54614;DHT22;40514;52.758;6.360;2022-09-02T12:35:59;39.00;33.00
54614;DHT22;40514;52.758;6.360;2022-09-02T12:38:29;39.00;32.90
54614;DHT22;40514;52.758;6.360;2022-09-02T12:48:50;39.60;32.40
54614;DHT22;40514;52.758;6.360;2022-09-02T12:54:06;39.70;32.20
54614;DHT22;40514;52.758;6.360;2022-09-02T12:56:32;39.20;32.30
54614;DHT22;40514;52.758;6.360;2022-09-02T12:58:57;39.20;31.90
54614;DHT22;40514;52.758;6.360;2022-09-02T13:01:28;39.30;32.40
54614;DHT22;40514;52.758;6.360;2022-09-02T13:06:33;39.70;32.60
54614;DHT22;40514;52.758;6.360;2022-09-02T13:14:05;39.00;31.40
54614;DHT22;40514;52.758;6.360;2022-09-02T13:36:46;35.30;33.40
54614;DHT22;40514;52.758;6.360;2022-09-02T13:39:32;34.60;33.50
54614;DHT22;40514;52.758;6.360;2022-09-02T13:41:57;34.00;33.90
54614;DHT22;40514;52.758;6.360;2022-09-02T13:44:23;33.50;33.70
54614;DHT22;40514;52.758;6.360;2022-09-02T13:46:51;32.90;34.40
54614;DHT22;40514;52.758;6.360;2022-09-02T13:49:17;32.90;36.80
54614;DHT22;40514;52.758;6.360;2022-09-02T13:51:43;32.90;35.90
54614;DHT22;40514;52.758;6.360;2022-09-02T13:54:09;32.80;36.10
54614;DHT22;40514;52.758;6.360;2022-09-02T13:56:35;32.70;36.20
54614;DHT22;40514;52.758;6.360;2022-09-02T13:59:01;32.50;36.40
54614;DHT22;40514;52.758;6.360;2022-09-02T14:03:55;32.20;36.70
54614;DHT22;40514;52.758;6.360;2022-09-02T14:06:23;32.10;36.80
54614;DHT22;40514;52.758;6.360;2022-09-02T14:08:50;32.00;36.50
54614;DHT22;40514;52.758;6.360;2022-09-02T14:11:17;32.00;36.60
54614;DHT22;40514;52.758;6.360;2022-09-02T14:13:43;31.90;36.80
54614;DHT22;40514;52.758;6.360;2022-09-02T14:16:30;31.70;36.70
54614;DHT22;40514;52.758;6.360;2022-09-02T14:21:51;31.50;37.00
54614;DHT22;40514;52.758;6.360;2022-09-02T14:24:19;31.30;37.10
54614;DHT22;40514;52.758;6.360;2022-09-02T14:26:45;31.10;37.40
54614;DHT22;40514;52.758;6.360;2022-09-02T14:29:15;31.10;37.80
54614;DHT22;40514;52.758;6.360;2022-09-02T14:31:42;31.00;37.80
54614;DHT22;40514;52.758;6.360;2022-09-02T14:36:52;30.60;37.40
54614;DHT22;40514;52.758;6.360;2022-09-02T14:39:17;30.50;37.50
54614;DHT22;40514;52.758;6.360;2022-09-02T14:41:50;30.20;38.00
54614;DHT22;40514;52.758;6.360;2022-09-02T14:44:17;30.10;38.20
54614;DHT22;40514;52.758;6.360;2022-09-02T14:46:47;30.10;38.50
54614;DHT22;40514;52.758;6.360;2022-09-02T14:49:24;30.20;38.30
54614;DHT22;40514;52.758;6.360;2022-09-02T14:51:51;30.10;38.40
54614;DHT22;40514;52.758;6.360;2022-09-02T14:54:33;30.10;38.70
54614;DHT22;40514;52.758;6.360;2022-09-02T14:56:59;30.00;38.80
54614;DHT22;40514;52.758;6.360;2022-09-02T14:59:24;30.00;39.20
54614;DHT22;40514;52.758;6.360;2022-09-02T15:01:50;29.90;38.90
54614;DHT22;40514;52.758;6.360;2022-09-02T15:04:17;30.00;39.20
54614;DHT22;40514;52.758;6.360;2022-09-02T15:06:43;29.90;38.70
54614;DHT22;40514;52.758;6.360;2022-09-02T15:09:10;29.80;38.80
54614;DHT22;40514;52.758;6.360;2022-09-02T15:11:37;29.80;39.10
54614;DHT22;40514;52.758;6.360;2022-09-02T15:14:04;29.70;38.80
54614;DHT22;40514;52.758;6.360;2022-09-02T15:16:29;29.60;39.60
54614;DHT22;40514;52.758;6.360;2022-09-02T15:18:55;29.60;38.90
54614;DHT22;40514;52.758;6.360;2022-09-02T15:21:20;29.60;39.20
54614;DHT22;40514;52.758;6.360;2022-09-02T15:23:46;29.50;39.40
54614;DHT22;40514;52.758;6.360;2022-09-02T15:26:11;29.50;39.00
54614;DHT22;40514;52.758;6.360;2022-09-02T15:28:37;29.40;39.00
54614;DHT22;40514;52.758;6.360;2022-09-02T15:31:02;29.40;39.50
54614;DHT22;40514;52.758;6.360;2022-09-02T15:33:28;29.20;38.20
54614;DHT22;40514;52.758;6.360;2022-09-02T15:35:54;29.20;39.40
54614;DHT22;40514;52.758;6.360;2022-09-02T15:38:19;29.10;39.40
54614;DHT22;40514;52.758;6.360;2022-09-02T15:40:45;29.00;39.50
54614;DHT22;40514;52.758;6.360;2022-09-02T15:43:13;29.00;39.00
54614;DHT22;40514;52.758;6.360;2022-09-02T15:45:43;29.00;39.50
54614;DHT22;40514;52.758;6.360;2022-09-02T15:48:08;29.00;39.70
54614;DHT22;40514;52.758;6.360;2022-09-02T15:50:34;29.00;39.00
54614;DHT22;40514;52.758;6.360;2022-09-02T15:52:59;28.90;39.00
54614;DHT22;40514;52.758;6.360;2022-09-02T15:55:25;28.80;38.90
54614;DHT22;40514;52.758;6.360;2022-09-02T15:57:50;28.60;39.50
54614;DHT22;40514;52.758;6.360;2022-09-02T16:00:16;28.50;39.40
54614;DHT22;40514;52.758;6.360;2022-09-02T16:02:41;28.40;39.80
54614;DHT22;40514;52.758;6.360;2022-09-02T16:05:07;28.30;39.60
54614;DHT22;40514;52.758;6.360;2022-09-02T16:07:33;28.20;39.70
54614;DHT22;40514;52.758;6.360;2022-09-02T16:09:59;28.10;40.00
54614;DHT22;40514;52.758;6.360;2022-09-02T16:12:24;28.10;40.60
54614;DHT22;40514;52.758;6.360;2022-09-02T16:14:51;28.10;40.50
54614;DHT22;40514;52.758;6.360;2022-09-02T16:17:16;28.10;40.70
54614;DHT22;40514;52.758;6.360;2022-09-02T16:19:42;28.00;40.70
54614;DHT22;40514;52.758;6.360;2022-09-02T16:22:07;27.90;40.70
54614;DHT22;40514;52.758;6.360;2022-09-02T16:24:33;27.90;40.50
54614;DHT22;40514;52.758;6.360;2022-09-02T16:26:59;27.70;40.50
54614;DHT22;40514;52.758;6.360;2022-09-02T16:29:24;27.80;41.10
54614;DHT22;40514;52.758;6.360;2022-09-02T16:31:51;27.70;40.90
54614;DHT22;40514;52.758;6.360;2022-09-02T16:34:18;27.60;41.20
54614;DHT22;40514;52.758;6.360;2022-09-02T16:36:45;27.60;41.40
54614;DHT22;40514;52.758;6.360;2022-09-02T16:39:11;27.50;41.10
54614;DHT22;40514;52.758;6.360;2022-09-02T16:41:41;27.30;41.10
54614;DHT22;40514;52.758;6.360;2022-09-02T16:44:09;27.20;41.10
54614;DHT22;40514;52.758;6.360;2022-09-02T16:46:35;27.20;41.20
54614;DHT22;40514;52.758;6.360;2022-09-02T16:49:01;27.20;41.30
54614;DHT22;40514;52.758;6.360;2022-09-02T16:51:27;27.10;41.20
54614;DHT22;40514;52.758;6.360;2022-09-02T16:53:55;27.00;41.70
54614;DHT22;40514;52.758;6.360;2022-09-02T16:56:20;27.00;41.60
54614;DHT22;40514;52.758;6.360;2022-09-02T16:58:48;26.90;41.60
54614;DHT22;40514;52.758;6.360;2022-09-02T17:01:13;26.90;41.90
54614;DHT22;40514;52.758;6.360;2022-09-02T17:03:39;26.80;42.10
54614;DHT22;40514;52.758;6.360;2022-09-02T17:06:05;26.80;42.00
54614;DHT22;40514;52.758;6.360;2022-09-02T17:08:31;26.90;42.20
54614;DHT22;40514;52.758;6.360;2022-09-02T17:13:41;26.80;42.10
54614;DHT22;40514;52.758;6.360;2022-09-02T17:16:06;26.70;42.00
54614;DHT22;40514;52.758;6.360;2022-09-02T17:18:32;26.60;42.20
54614;DHT22;40514;52.758;6.360;2022-09-02T17:23:42;26.60;42.60
54614;DHT22;40514;52.758;6.360;2022-09-02T17:26:07;26.50;42.50
54614;DHT22;40514;52.758;6.360;2022-09-02T17:28:33;26.40;42.70
54614;DHT22;40514;52.758;6.360;2022-09-02T17:30:59;26.30;43.40